sensor_id;sensor_type;location;lat;lon;timestamp;temperature;humidity
7562;DHT22;3822;48.784;9.174;2022-09-17T00:01:17;13.60;90.40
7562;DHT22;3822;48.784;9.174;2022-09-17T00:03:56;13.60;90.40
7562;DHT22;3822;48.784;9.174;2022-09-17T00:06:30;13.50;90.50
7562;DHT22;3822;48.784;9.174;2022-09-17T00:08:57;13.50;90.50
7562;DHT22;3822;48.784;9.174;2022-09-17T00:11:27;13.50;90.50
7562;DHT22;3822;48.784;9.174;2022-09-17T00:13:56;13.50;90.50
7562;DHT22;3822;48.784;9.174;2022-09-17T00:16:28;13.50;90.60
7562;DHT22;3822;48.784;9.174;2022-09-17T00:18:57;13.40;90.60
7562;DHT22;3822;48.784;9.174;2022-09-17T00:21:25;13.50;90.70
7562;DHT22;3822;48.784;9.174;2022-09-17T00:23:56;13.40;90.60
7562;DHT22;3822;48.784;9.174;2022-09-17T00:26:24;13.40;90.60
7562;DHT22;3822;48.784;9.174;2022-09-17T00:28:52;13.40;90.60
7562;DHT22;3822;48.784;9.174;2022-09-17T00:31:20;13.40;90.70
7562;DHT22;3822;48.784;9.174;2022-09-17T00:33:48;13.40;90.70
7562;DHT22;3822;48.784;9.174;2022-09-17T00:36:15;13.40;90.70
7562;DHT22;3822;48.784;9.174;2022-09-17T00:38:50;13.40;90.70
7562;DHT22;3822;48.784;9.174;2022-09-17T00:41:17;15.30;91.50
7562;DHT22;3822;48.784;9.174;2022-09-17T00:43:49;15.30;91.60
7562;DHT22;3822;48.784;9.174;2022-09-17T00:46:37;13.30;90.80
7562;DHT22;3822;48.784;9.174;2022-09-17T00:49:19;13.30;90.80
7562;DHT22;3822;48.784;9.174;2022-09-17T00:51:57;13.30;90.80
7562;DHT22;3822;48.784;9.174;2022-09-17T00:54:27;13.20;90.80
7562;DHT22;3822;48.784;9.174;2022-09-17T00:56:54;13.40;90.90
7562;DHT22;3822;48.784;9.174;2022-09-17T00:59:22;14.30;91.40
7562;DHT22;3822;48.784;9.174;2022-09-17T01:01:49;13.30;90.90
7562;DHT22;3822;48.784;9.174;2022-09-17T01:04:18;13.30;90.90
7562;DHT22;3822;48.784;9.174;2022-09-17T01:09:38;13.30;91.00
7562;DHT22;3822;48.784;9.174;2022-09-17T01:17:49;13.20;90.90
7562;DHT22;3822;48.784;9.174;2022-09-17T01:33:09;13.20;91.10
7562;DHT22;3822;48.784;9.174;2022-09-17T01:42:15;13.30;91.20
7562;DHT22;3822;48.784;9.174;2022-09-17T01:45:46;13.20;91.10
7562;DHT22;3822;48.784;9.174;2022-09-17T01:48:11;13.30;91.20
7562;DHT22;3822;48.784;9.174;2022-09-17T01:51:08;13.20;91.20
7562;DHT22;3822;48.784;9.174;2022-09-17T01:57:11;13.10;91.20
7562;DHT22;3822;48.784;9.174;2022-09-17T01:59:36;13.10;91.30
7562;DHT22;3822;48.784;9.174;2022-09-17T02:02:14;13.00;91.30
7562;DHT22;3822;48.784;9.174;2022-09-17T02:05:00;13.00;91.40
7562;DHT22;3822;48.784;9.174;2022-09-17T02:07:32;13.00;91.50
7562;DHT22;3822;48.784;9.174;2022-09-17T02:10:08;13.00;91.60
7562;DHT22;3822;48.784;9.174;2022-09-17T02:12:47;12.80;91.60
7562;DHT22;3822;48.784;9.174;2022-09-17T02:15:29;12.80;91.70
7562;DHT22;3822;48.784;9.174;2022-09-17T02:18:21;12.80;91.80
7562;DHT22;3822;48.784;9.174;2022-09-17T02:21:00;12.80;91.80
7562;DHT22;3822;48.784;9.174;2022-09-17T02:23:33;12.80;91.90
7562;DHT22;3822;48.784;9.174;2022-09-17T02:26:10;12.90;91.90
7562;DHT22;3822;48.784;9.174;2022-09-17T02:28:46;12.80;91.90
7562;DHT22;3822;48.784;9.174;2022-09-17T02:31:15;12.80;92.20
7562;DHT22;3822;48.784;9.174;2022-09-17T02:33:46;12.90;91.90
7562;DHT22;3822;48.784;9.174;2022-09-17T02:36:14;12.80;91.90
7562;DHT22;3822;48.784;9.174;2022-09-17T02:38:43;12.80;91.90
7562;DHT22;3822;48.784;9.174;2022-09-17T02:41:20;12.90;91.80
7562;DHT22;3822;48.784;9.174;2022-09-17T02:44:17;12.80;91.80
7562;DHT22;3822;48.784;9.174;2022-09-17T02:47:22;12.80;91.80
7562;DHT22;3822;48.784;9.174;2022-09-17T02:50:13;12.80;91.70
7562;DHT22;3822;48.784;9.174;2022-09-17T02:56:13;12.80;91.70
7562;DHT22;3822;48.784;9.174;2022-09-17T02:59:42;12.70;91.70
7562;DHT22;3822;48.784;9.174;2022-09-17T03:02:19;12.70;91.70
7562;DHT22;3822;48.784;9.174;2022-09-17T03:04:49;13.10;92.00
7562;DHT22;3822;48.784;9.174;2022-09-17T03:07:17;12.70;91.80
7562;DHT22;3822;48.784;9.174;2022-09-17T03:09:45;12.70;91.80
7562;DHT22;3822;48.784;9.174;2022-09-17T03:12:12;12.70;91.80
7562;DHT22;3822;48.784;9.174;2022-09-17T03:14:39;12.70;91.80
7562;DHT22;3822;48.784;9.174;2022-09-17T03:17:06;12.70;91.80
7562;DHT22;3822;48.784;9.174;2022-09-17T03:19:32;12.80;91.90
7562;DHT22;3822;48.784;9.174;2022-09-17T03:21:59;12.60;91.80
7562;DHT22;3822;48.784;9.174;2022-09-17T03:24:25;12.60;91.90
7562;DHT22;3822;48.784;9.174;2022-09-17T03:26:53;12.80;92.00
7562;DHT22;3822;48.784;9.174;2022-09-17T03:29:20;12.60;91.90
7562;DHT22;3822;48.784;9.174;2022-09-17T03:31:46;12.60;91.90
7562;DHT22;3822;48.784;9.174;2022-09-17T03:34:13;12.50;91.90
7562;DHT22;3822;48.784;9.174;2022-09-17T03:36:39;12.50;91.90
7562;DHT22;3822;48.784;9.174;2022-09-17T03:39:06;12.50;91.90
7562;DHT22;3822;48.784;9.174;2022-09-17T03:41:33;12.50;91.90
7562;DHT22;3822;48.784;9.174;2022-09-17T03:43:59;12.50;91.90
7562;DHT22;3822;48.784;9.174;2022-09-17T03:46:27;12.40;91.90
7562;DHT22;3822;48.784;9.174;2022-09-17T03:48:54;12.40;91.90
7562;DHT22;3822;48.784;9.174;2022-09-17T03:51:20;13.10;92.30
7562;DHT22;3822;48.784;9.174;2022-09-17T03:53:47;12.90;92.20
7562;DHT22;3822;48.784;9.174;2022-09-17T03:56:14;12.40;92.00
7562;DHT22;3822;48.784;9.174;2022-09-17T03:58:40;12.40;92.00
7562;DHT22;3822;48.784;9.174;2022-09-17T04:01:06;12.80;92.20
7562;DHT22;3822;48.784;9.174;2022-09-17T04:03:33;12.40;92.10
7562;DHT22;3822;48.784;9.174;2022-09-17T04:05:59;12.40;92.00
7562;DHT22;3822;48.784;9.174;2022-09-17T04:08:26;12.40;92.00
7562;DHT22;3822;48.784;9.174;2022-09-17T04:10:53;12.50;92.00
7562;DHT22;3822;48.784;9.174;2022-09-17T04:13:19;12.40;91.90
7562;DHT22;3822;48.784;9.174;2022-09-17T04:15:46;12.90;92.20
7562;DHT22;3822;48.784;9.174;2022-09-17T04:18:13;12.40;92.00
7562;DHT22;3822;48.784;9.174;2022-09-17T04:20:40;12.40;91.90
7562;DHT22;3822;48.784;9.174;2022-09-17T04:23:10;12.50;92.00
7562;DHT22;3822;48.784;9.174;2022-09-17T04:25:37;12.30;91.90
7562;DHT22;3822;48.784;9.174;2022-09-17T04:28:04;12.60;92.10
7562;DHT22;3822;48.784;9.174;2022-09-17T04:30:30;12.30;92.00
7562;DHT22;3822;48.784;9.174;2022-09-17T04:32:58;12.30;92.00
7562;DHT22;3822;48.784;9.174;2022-09-17T04:35:24;12.60;92.10
7562;DHT22;3822;48.784;9.174;2022-09-17T04:37:58;12.20;91.90
7562;DHT22;3822;48.784;9.174;2022-09-17T04:40:26;12.20;91.90
7562;DHT22;3822;48.784;9.174;2022-09-17T04:42:58;12.20;92.00
7562;DHT22;3822;48.784;9.174;2022-09-17T04:45:25;12.20;91.90
7562;DHT22;3822;48.784;9.174;2022-09-17T04:47:51;12.20;91.90
7562;DHT22;3822;48.784;9.174;2022-09-17T04:50:18;12.10;91.90
7562;DHT22;3822;48.784;9.174;2022-09-17T04:52:45;12.40;92.00
7562;DHT22;3822;48.784;9.174;2022-09-17T04:55:13;12.40;92.00
7562;DHT22;3822;48.784;9.174;2022-09-17T04:57:47;12.10;91.90
7562;DHT22;3822;48.784;9.174;2022-09-17T05:00:16;12.40;92.10
7562;DHT22;3822;48.784;9.174;2022-09-17T05:02:45;12.10;91.90
7562;DHT22;3822;48.784;9.174;2022-09-17T05:05:14;12.10;91.90
7562;DHT22;3822;48.784;9.174;2022-09-17T05:07:41;12.10;92.00
7562;DHT22;3822;48.784;9.174;2022-09-17T05:10:09;12.10;92.00
7562;DHT22;3822;48.784;9.174;2022-09-17T05:12:36;12.10;92.00
7562;DHT22;3822;48.784;9.174;2022-09-17T05:15:03;12.20;92.00
7562;DHT22;3822;48.784;9.174;2022-09-17T05:17:31;12.10;91.90
7562;DHT22;3822;48.784;9.174;2022-09-17T05:19:57;13.20;92.40
7562;DHT22;3822;48.784;9.174;2022-09-17T05:22:23;12.60;92.10
7562;DHT22;3822;48.784;9.174;2022-09-17T05:24:50;12.00;91.90
7562;DHT22;3822;48.784;9.174;2022-09-17T05:27:16;12.30;92.00
7562;DHT22;3822;48.784;9.174;2022-09-17T05:29:43;12.00;91.90
7562;DHT22;3822;48.784;9.174;2022-09-17T05:32:10;12.10;92.10
7562;DHT22;3822;48.784;9.174;2022-09-17T05:34:36;12.10;92.20
7562;DHT22;3822;48.784;9.174;2022-09-17T05:37:03;12.10;92.20
7562;DHT22;3822;48.784;9.174;2022-09-17T05:39:29;12.20;92.10
7562;DHT22;3822;48.784;9.174;2022-09-17T05:41:58;12.20;92.00
7562;DHT22;3822;48.784;9.174;2022-09-17T05:44:26;12.40;92.00
7562;DHT22;3822;48.784;9.174;2022-09-17T05:46:52;12.20;91.90
7562;DHT22;3822;48.784;9.174;2022-09-17T05:49:19;12.20;91.90
7562;DHT22;3822;48.784;9.174;2022-09-17T05:51:46;12.20;91.80
7562;DHT22;3822;48.784;9.174;2022-09-17T05:54:13;12.10;91.80
7562;DHT22;3822;48.784;9.174;2022-09-17T05:56:39;12.10;91.80
7562;DHT22;3822;48.784;9.174;2022-09-17T05:59:06;12.20;91.90
7562;DHT22;3822;48.784;9.174;2022-09-17T06:01:32;12.10;91.80
7562;DHT22;3822;48.784;9.174;2022-09-17T06:03:59;12.10;91.90
7562;DHT22;3822;48.784;9.174;2022-09-17T06:06:28;12.10;91.90
7562;DHT22;3822;48.784;9.174;2022-09-17T06:08:58;12.10;91.90
7562;DHT22;3822;48.784;9.174;2022-09-17T06:11:25;12.10;91.90
7562;DHT22;3822;48.784;9.174;2022-09-17T06:13:52;12.10;91.80
7562;DHT22;3822;48.784;9.174;2022-09-17T06:16:21;12.20;91.90
7562;DHT22;3822;48.784;9.174;2022-09-17T06:18:48;12.50;92.00
7562;DHT22;3822;48.784;9.174;2022-09-17T06:21:15;12.20;91.90
7562;DHT22;3822;48.784;9.174;2022-09-17T06:23:42;12.30;92.00
7562;DHT22;3822;48.784;9.174;2022-09-17T06:26:11;12.20;91.90
7562;DHT22;3822;48.784;9.174;2022-09-17T06:28:37;12.20;91.80
7562;DHT22;3822;48.784;9.174;2022-09-17T06:31:06;12.40;91.90
7562;DHT22;3822;48.784;9.174;2022-09-17T06:33:34;12.20;91.80
7562;DHT22;3822;48.784;9.174;2022-09-17T06:36:07;12.20;91.90
7562;DHT22;3822;48.784;9.174;2022-09-17T06:38:36;12.20;91.90
7562;DHT22;3822;48.784;9.174;2022-09-17T06:41:03;12.20;91.90
7562;DHT22;3822;48.784;9.174;2022-09-17T06:43:30;12.20;91.80
7562;DHT22;3822;48.784;9.174;2022-09-17T06:45:59;12.30;91.90
7562;DHT22;3822;48.784;9.174;2022-09-17T06:48:28;12.30;91.80
7562;DHT22;3822;48.784;9.174;2022-09-17T06:50:57;12.30;91.80
7562;DHT22;3822;48.784;9.174;2022-09-17T06:53:27;12.30;91.70
7562;DHT22;3822;48.784;9.174;2022-09-17T06:55:56;12.30;91.70
7562;DHT22;3822;48.784;9.174;2022-09-17T06:58:24;12.30;91.70
7562;DHT22;3822;48.784;9.174;2022-09-17T07:00:51;12.30;91.60
7562;DHT22;3822;48.784;9.174;2022-09-17T07:03:23;12.30;91.60
7562;DHT22;3822;48.784;9.174;2022-09-17T07:05:49;13.50;92.10
7562;DHT22;3822;48.784;9.174;2022-09-17T07:08:16;12.40;91.60
7562;DHT22;3822;48.784;9.174;2022-09-17T07:10:43;12.40;91.60
7562;DHT22;3822;48.784;9.174;2022-09-17T07:13:09;12.50;91.60
7562;DHT22;3822;48.784;9.174;2022-09-17T07:15:58;12.40;91.60
7562;DHT22;3822;48.784;9.174;2022-09-17T07:18:26;12.40;91.70
7562;DHT22;3822;48.784;9.174;2022-09-17T07:20:58;12.40;91.70
7562;DHT22;3822;48.784;9.174;2022-09-17T07:23:27;14.30;92.70
7562;DHT22;3822;48.784;9.174;2022-09-17T07:26:06;12.30;92.10
7562;DHT22;3822;48.784;9.174;2022-09-17T07:28:37;12.30;92.40
7562;DHT22;3822;48.784;9.174;2022-09-17T07:31:06;12.30;92.60
7562;DHT22;3822;48.784;9.174;2022-09-17T07:33:34;12.20;92.70
7562;DHT22;3822;48.784;9.174;2022-09-17T07:36:04;12.20;92.90
7562;DHT22;3822;48.784;9.174;2022-09-17T07:38:32;12.20;93.00
7562;DHT22;3822;48.784;9.174;2022-09-17T07:41:05;12.20;93.30
7562;DHT22;3822;48.784;9.174;2022-09-17T07:43:35;12.10;93.40
7562;DHT22;3822;48.784;9.174;2022-09-17T07:46:03;12.10;93.50
7562;DHT22;3822;48.784;9.174;2022-09-17T07:48:31;12.10;93.60
7562;DHT22;3822;48.784;9.174;2022-09-17T07:50:58;10.90;93.10
7562;DHT22;3822;48.784;9.174;2022-09-17T07:53:25;12.10;93.70
7562;DHT22;3822;48.784;9.174;2022-09-17T07:55:53;14.50;94.90
7562;DHT22;3822;48.784;9.174;2022-09-17T07:58:28;12.10;93.90
7562;DHT22;3822;48.784;9.174;2022-09-17T08:01:07;13.90;94.80
7562;DHT22;3822;48.784;9.174;2022-09-17T08:03:35;12.00;93.90
7562;DHT22;3822;48.784;9.174;2022-09-17T08:06:14;12.00;94.00
7562;DHT22;3822;48.784;9.174;2022-09-17T08:08:42;12.10;94.10
7562;DHT22;3822;48.784;9.174;2022-09-17T08:11:14;12.10;94.10
7562;DHT22;3822;48.784;9.174;2022-09-17T08:13:45;12.10;94.20
7562;DHT22;3822;48.784;9.174;2022-09-17T08:16:13;12.10;94.10
7562;DHT22;3822;48.784;9.174;2022-09-17T08:18:41;12.10;94.20
7562;DHT22;3822;48.784;9.174;2022-09-17T08:21:10;12.50;94.40
7562;DHT22;3822;48.784;9.174;2022-09-17T08:23:40;12.20;94.30
7562;DHT22;3822;48.784;9.174;2022-09-17T08:26:11;12.20;94.20
7562;DHT22;3822;48.784;9.174;2022-09-17T08:28:47;12.20;94.20
7562;DHT22;3822;48.784;9.174;2022-09-17T08:31:16;12.30;94.30
7562;DHT22;3822;48.784;9.174;2022-09-17T08:33:44;12.30;94.20
7562;DHT22;3822;48.784;9.174;2022-09-17T08:36:14;12.30;94.20
7562;DHT22;3822;48.784;9.174;2022-09-17T08:38:42;12.40;94.20
7562;DHT22;3822;48.784;9.174;2022-09-17T08:49:24;12.40;94.10
7562;DHT22;3822;48.784;9.174;2022-09-17T09:01:24;12.50;93.90
7562;DHT22;3822;48.784;9.174;2022-09-17T09:07:16;12.60;93.80
7562;DHT22;3822;48.784;9.174;2022-09-17T09:12:33;12.60;93.60
7562;DHT22;3822;48.784;9.174;2022-09-17T09:18:04;12.70;93.50
7562;DHT22;3822;48.784;9.174;2022-09-17T09:26:17;12.90;93.50
7562;DHT22;3822;48.784;9.174;2022-09-17T09:32:28;13.00;93.10
7562;DHT22;3822;48.784;9.174;2022-09-17T09:35:19;13.10;93.00
7562;DHT22;3822;48.784;9.174;2022-09-17T09:43:43;13.20;92.90
7562;DHT22;3822;48.784;9.174;2022-09-17T09:58:36;13.40;92.50
7562;DHT22;3822;48.784;9.174;2022-09-17T10:01:15;13.40;92.20
7562;DHT22;3822;48.784;9.174;2022-09-17T10:03:47;13.70;92.30
7562;DHT22;3822;48.784;9.174;2022-09-17T10:06:17;13.50;92.20
7562;DHT22;3822;48.784;9.174;2022-09-17T10:11:29;13.60;91.80
7562;DHT22;3822;48.784;9.174;2022-09-17T10:14:22;13.60;91.70
7562;DHT22;3822;48.784;9.174;2022-09-17T10:19:37;13.70;91.80
7562;DHT22;3822;48.784;9.174;2022-09-17T10:24:51;13.90;91.40
7562;DHT22;3822;48.784;9.174;2022-09-17T10:27:20;14.00;91.00
7562;DHT22;3822;48.784;9.174;2022-09-17T10:29:50;14.00;90.80
7562;DHT22;3822;48.784;9.174;2022-09-17T10:32:21;14.10;90.60
7562;DHT22;3822;48.784;9.174;2022-09-17T10:40:32;14.30;89.20
7562;DHT22;3822;48.784;9.174;2022-09-17T10:43:21;14.30;88.80
7562;DHT22;3822;48.784;9.174;2022-09-17T10:45:56;14.40;88.80
7562;DHT22;3822;48.784;9.174;2022-09-17T10:48:27;14.40;87.80
7562;DHT22;3822;48.784;9.174;2022-09-17T10:50:56;14.60;87.50
7562;DHT22;3822;48.784;9.174;2022-09-17T10:53:24;14.40;86.80
7562;DHT22;3822;48.784;9.174;2022-09-17T10:58:55;14.60;87.10
7562;DHT22;3822;48.784;9.174;2022-09-17T11:01:51;14.70;86.30
7562;DHT22;3822;48.784;9.174;2022-09-17T11:07:31;14.90;85.40
7562;DHT22;3822;48.784;9.174;2022-09-17T11:10:22;15.00;85.60
7562;DHT22;3822;48.784;9.174;2022-09-17T11:13:02;15.10;83.80
7562;DHT22;3822;48.784;9.174;2022-09-17T11:15:55;15.20;83.40
7562;DHT22;3822;48.784;9.174;2022-09-17T11:21:28;15.40;82.90
7562;DHT22;3822;48.784;9.174;2022-09-17T11:38:10;12.30;77.00
7562;DHT22;3822;48.784;9.174;2022-09-17T11:40:43;15.80;79.30
7562;DHT22;3822;48.784;9.174;2022-09-17T11:43:26;15.70;79.50
7562;DHT22;3822;48.784;9.174;2022-09-17T11:46:12;15.80;79.60
7562;DHT22;3822;48.784;9.174;2022-09-17T11:48:47;15.80;79.40
7562;DHT22;3822;48.784;9.174;2022-09-17T11:51:41;15.90;79.60
7562;DHT22;3822;48.784;9.174;2022-09-17T11:57:24;16.20;78.10
7562;DHT22;3822;48.784;9.174;2022-09-17T12:00:03;16.20;76.50
7562;DHT22;3822;48.784;9.174;2022-09-17T12:02:57;16.30;75.10
7562;DHT22;3822;48.784;9.174;2022-09-17T12:05:31;16.30;74.40
7562;DHT22;3822;48.784;9.174;2022-09-17T12:08:21;16.30;74.60
7562;DHT22;3822;48.784;9.174;2022-09-17T12:11:00;16.30;75.10
7562;DHT22;3822;48.784;9.174;2022-09-17T12:13:56;16.30;74.20
7562;DHT22;3822;48.784;9.174;2022-09-17T12:16:39;16.40;75.90
7562;DHT22;3822;48.784;9.174;2022-09-17T12:22:18;16.10;78.00
7562;DHT22;3822;48.784;9.174;2022-09-17T12:24:49;16.00;78.70
7562;DHT22;3822;48.784;9.174;2022-09-17T12:31:18;16.00;80.20
7562;DHT22;3822;48.784;9.174;2022-09-17T12:34:01;15.90;80.50
7562;DHT22;3822;48.784;9.174;2022-09-17T12:36:41;15.80;80.50
7562;DHT22;3822;48.784;9.174;2022-09-17T12:42:37;15.70;80.40
7562;DHT22;3822;48.784;9.174;2022-09-17T12:45:37;15.70;80.10
7562;DHT22;3822;48.784;9.174;2022-09-17T12:51:00;15.70;80.80
7562;DHT22;3822;48.784;9.174;2022-09-17T12:53:46;15.60;81.50
7562;DHT22;3822;48.784;9.174;2022-09-17T12:59:18;15.40;83.00
7562;DHT22;3822;48.784;9.174;2022-09-17T13:11:51;14.80;84.40
7562;DHT22;3822;48.784;9.174;2022-09-17T13:22:30;14.60;88.30
7562;DHT22;3822;48.784;9.174;2022-09-17T13:25:05;14.10;88.00
7562;DHT22;3822;48.784;9.174;2022-09-17T13:27:34;14.00;88.30
7562;DHT22;3822;48.784;9.174;2022-09-17T13:30:05;13.90;88.80
7562;DHT22;3822;48.784;9.174;2022-09-17T13:37:33;13.90;90.10
7562;DHT22;3822;48.784;9.174;2022-09-17T13:40:01;13.90;90.20
7562;DHT22;3822;48.784;9.174;2022-09-17T13:42:53;13.90;90.20
7562;DHT22;3822;48.784;9.174;2022-09-17T13:45:22;14.00;90.30
7562;DHT22;3822;48.784;9.174;2022-09-17T13:48:04;14.00;90.30
7562;DHT22;3822;48.784;9.174;2022-09-17T13:50:37;16.90;91.50
7562;DHT22;3822;48.784;9.174;2022-09-17T14:01:03;14.50;90.30
7562;DHT22;3822;48.784;9.174;2022-09-17T14:08:47;14.90;90.10
7562;DHT22;3822;48.784;9.174;2022-09-17T14:16:31;15.20;89.80
7562;DHT22;3822;48.784;9.174;2022-09-17T14:22:15;15.50;89.10
7562;DHT22;3822;48.784;9.174;2022-09-17T14:37:57;16.00;86.10
7562;DHT22;3822;48.784;9.174;2022-09-17T14:40:26;16.10;85.00
7562;DHT22;3822;48.784;9.174;2022-09-17T14:42:55;16.20;85.60
7562;DHT22;3822;48.784;9.174;2022-09-17T14:45:40;16.30;84.80
7562;DHT22;3822;48.784;9.174;2022-09-17T14:56:57;16.80;82.90
7562;DHT22;3822;48.784;9.174;2022-09-17T14:59:48;16.90;82.00
7562;DHT22;3822;48.784;9.174;2022-09-17T15:04:56;17.00;81.70
7562;DHT22;3822;48.784;9.174;2022-09-17T15:07:23;17.00;81.20
7562;DHT22;3822;48.784;9.174;2022-09-17T15:09:50;17.20;81.00
7562;DHT22;3822;48.784;9.174;2022-09-17T15:12:27;17.10;80.90
7562;DHT22;3822;48.784;9.174;2022-09-17T15:14:56;17.10;80.70
7562;DHT22;3822;48.784;9.174;2022-09-17T15:17:23;17.00;80.60
7562;DHT22;3822;48.784;9.174;2022-09-17T15:19:55;17.00;80.70
7562;DHT22;3822;48.784;9.174;2022-09-17T15:22:36;16.90;80.30
7562;DHT22;3822;48.784;9.174;2022-09-17T15:25:07;17.00;80.70
7562;DHT22;3822;48.784;9.174;2022-09-17T15:27:40;16.80;80.70
7562;DHT22;3822;48.784;9.174;2022-09-17T15:30:16;16.80;80.20
7562;DHT22;3822;48.784;9.174;2022-09-17T15:32:56;16.60;79.60
7562;DHT22;3822;48.784;9.174;2022-09-17T15:35:32;16.60;79.60
7562;DHT22;3822;48.784;9.174;2022-09-17T15:38:26;16.50;79.50
7562;DHT22;3822;48.784;9.174;2022-09-17T15:40:54;16.40;79.60
7562;DHT22;3822;48.784;9.174;2022-09-17T15:43:33;16.40;79.60
7562;DHT22;3822;48.784;9.174;2022-09-17T15:48:57;16.20;79.30
7562;DHT22;3822;48.784;9.174;2022-09-17T15:54:05;16.10;79.60
7562;DHT22;3822;48.784;9.174;2022-09-17T15:56:55;16.10;80.00
7562;DHT22;3822;48.784;9.174;2022-09-17T15:59:31;18.00;82.40
7562;DHT22;3822;48.784;9.174;2022-09-17T16:02:00;16.20;80.60
7562;DHT22;3822;48.784;9.174;2022-09-17T16:04:29;16.20;80.50
7562;DHT22;3822;48.784;9.174;2022-09-17T16:12:12;17.60;81.20
7562;DHT22;3822;48.784;9.174;2022-09-17T16:14:54;16.20;79.70
7562;DHT22;3822;48.784;9.174;2022-09-17T16:17:40;16.20;79.70
7562;DHT22;3822;48.784;9.174;2022-09-17T16:22:43;16.20;79.70
7562;DHT22;3822;48.784;9.174;2022-09-17T16:25:10;16.20;79.30
7562;DHT22;3822;48.784;9.174;2022-09-17T16:28:01;16.20;79.70
7562;DHT22;3822;48.784;9.174;2022-09-17T16:30:29;16.20;79.50
7562;DHT22;3822;48.784;9.174;2022-09-17T16:32:56;16.30;79.40
7562;DHT22;3822;48.784;9.174;2022-09-17T16:35:24;16.40;79.40
7562;DHT22;3822;48.784;9.174;2022-09-17T16:37:53;16.40;79.00
7562;DHT22;3822;48.784;9.174;2022-09-17T16:40:22;16.50;78.80
7562;DHT22;3822;48.784;9.174;2022-09-17T16:42:49;17.00;79.30
7562;DHT22;3822;48.784;9.174;2022-09-17T16:45:16;16.40;78.70
7562;DHT22;3822;48.784;9.174;2022-09-17T16:47:42;16.40;78.60
7562;DHT22;3822;48.784;9.174;2022-09-17T16:50:15;16.30;78.60
7562;DHT22;3822;48.784;9.174;2022-09-17T16:52:42;16.30;78.90
7562;DHT22;3822;48.784;9.174;2022-09-17T16:55:14;16.30;79.00
7562;DHT22;3822;48.784;9.174;2022-09-17T16:57:42;16.30;79.10
7562;DHT22;3822;48.784;9.174;2022-09-17T17:00:11;13.30;77.00
7562;DHT22;3822;48.784;9.174;2022-09-17T17:02:42;16.30;79.30
7562;DHT22;3822;48.784;9.174;2022-09-17T17:05:09;16.20;79.20
7562;DHT22;3822;48.784;9.174;2022-09-17T17:07:36;16.20;79.40
7562;DHT22;3822;48.784;9.174;2022-09-17T17:10:04;16.10;79.50
7562;DHT22;3822;48.784;9.174;2022-09-17T17:12:34;16.10;79.80
7562;DHT22;3822;48.784;9.174;2022-09-17T17:15:02;16.00;80.50
7562;DHT22;3822;48.784;9.174;2022-09-17T17:17:31;15.90;81.70
7562;DHT22;3822;48.784;9.174;2022-09-17T17:19:58;16.00;82.60
7562;DHT22;3822;48.784;9.174;2022-09-17T17:22:24;15.70;83.20
7562;DHT22;3822;48.784;9.174;2022-09-17T17:24:51;15.60;83.70
7562;DHT22;3822;48.784;9.174;2022-09-17T17:27:18;16.60;85.30
7562;DHT22;3822;48.784;9.174;2022-09-17T17:29:44;15.40;84.80
7562;DHT22;3822;48.784;9.174;2022-09-17T17:32:11;17.10;87.30
7562;DHT22;3822;48.784;9.174;2022-09-17T17:34:37;15.20;85.90
7562;DHT22;3822;48.784;9.174;2022-09-17T17:37:04;15.10;86.50
7562;DHT22;3822;48.784;9.174;2022-09-17T17:39:30;15.10;87.30
7562;DHT22;3822;48.784;9.174;2022-09-17T17:41:57;15.00;88.20
7562;DHT22;3822;48.784;9.174;2022-09-17T17:44:24;16.00;89.00
7562;DHT22;3822;48.784;9.174;2022-09-17T17:46:50;14.90;88.50
7562;DHT22;3822;48.784;9.174;2022-09-17T17:49:16;15.00;89.00
7562;DHT22;3822;48.784;9.174;2022-09-17T17:51:43;14.80;89.30
7562;DHT22;3822;48.784;9.174;2022-09-17T17:54:10;14.80;89.80
7562;DHT22;3822;48.784;9.174;2022-09-17T17:56:36;14.70;90.00
7562;DHT22;3822;48.784;9.174;2022-09-17T17:59:03;14.70;90.20
7562;DHT22;3822;48.784;9.174;2022-09-17T18:01:30;14.70;90.30
7562;DHT22;3822;48.784;9.174;2022-09-17T18:04:02;14.50;90.40
7562;DHT22;3822;48.784;9.174;2022-09-17T18:06:30;14.40;90.40
7562;DHT22;3822;48.784;9.174;2022-09-17T18:08:57;14.30;90.40
7562;DHT22;3822;48.784;9.174;2022-09-17T18:11:23;14.20;90.50
7562;DHT22;3822;48.784;9.174;2022-09-17T18:13:52;14.20;90.60
7562;DHT22;3822;48.784;9.174;2022-09-17T18:16:20;14.10;90.70
7562;DHT22;3822;48.784;9.174;2022-09-17T18:18:47;14.00;90.80
7562;DHT22;3822;48.784;9.174;2022-09-17T18:21:17;13.90;90.90
7562;DHT22;3822;48.784;9.174;2022-09-17T18:23:45;13.90;91.10
7562;DHT22;3822;48.784;9.174;2022-09-17T18:26:21;13.90;91.20
7562;DHT22;3822;48.784;9.174;2022-09-17T18:28:49;13.80;91.30
7562;DHT22;3822;48.784;9.174;2022-09-17T18:31:22;13.80;91.50
7562;DHT22;3822;48.784;9.174;2022-09-17T18:34:01;13.80;91.60
7562;DHT22;3822;48.784;9.174;2022-09-17T18:36:31;13.70;91.80
7562;DHT22;3822;48.784;9.174;2022-09-17T18:38:59;13.70;92.00
7562;DHT22;3822;48.784;9.174;2022-09-17T18:41:28;13.70;92.10
7562;DHT22;3822;48.784;9.174;2022-09-17T18:43:55;13.60;92.20
7562;DHT22;3822;48.784;9.174;2022-09-17T18:46:22;13.60;92.30
7562;DHT22;3822;48.784;9.174;2022-09-17T18:48:52;13.70;92.40
7562;DHT22;3822;48.784;9.174;2022-09-17T18:51:20;14.50;92.90
7562;DHT22;3822;48.784;9.174;2022-09-17T18:53:47;13.50;92.50
7562;DHT22;3822;48.784;9.174;2022-09-17T18:56:18;13.50;92.70
7562;DHT22;3822;48.784;9.174;2022-09-17T18:58:47;13.50;92.70
7562;DHT22;3822;48.784;9.174;2022-09-17T19:01:16;13.50;92.80
7562;DHT22;3822;48.784;9.174;2022-09-17T19:03:43;13.50;92.80
7562;DHT22;3822;48.784;9.174;2022-09-17T19:06:11;13.60;92.90
7562;DHT22;3822;48.784;9.174;2022-09-17T19:08:38;13.60;93.20
7562;DHT22;3822;48.784;9.174;2022-09-17T19:11:05;15.20;94.10
7562;DHT22;3822;48.784;9.174;2022-09-17T19:13:42;13.40;93.30
7562;DHT22;3822;48.784;9.174;2022-09-17T19:16:11;13.40;93.00
7562;DHT22;3822;48.784;9.174;2022-09-17T19:18:38;13.10;92.80
7562;DHT22;3822;48.784;9.174;2022-09-17T19:21:09;15.00;93.70
7562;DHT22;3822;48.784;9.174;2022-09-17T19:23:42;12.80;92.70
7562;DHT22;3822;48.784;9.174;2022-09-17T19:26:12;12.70;92.60
7562;DHT22;3822;48.784;9.174;2022-09-17T19:28:40;12.70;92.30
7562;DHT22;3822;48.784;9.174;2022-09-17T19:31:11;12.60;92.10
7562;DHT22;3822;48.784;9.174;2022-09-17T19:33:39;12.50;92.00
7562;DHT22;3822;48.784;9.174;2022-09-17T19:36:09;13.10;92.30
7562;DHT22;3822;48.784;9.174;2022-09-17T19:38:37;13.20;92.50
7562;DHT22;3822;48.784;9.174;2022-09-17T19:41:10;12.40;92.30
7562;DHT22;3822;48.784;9.174;2022-09-17T19:43:38;12.30;92.40
7562;DHT22;3822;48.784;9.174;2022-09-17T19:46:11;12.40;92.50
7562;DHT22;3822;48.784;9.174;2022-09-17T19:48:43;12.30;92.50
7562;DHT22;3822;48.784;9.174;2022-09-17T19:51:10;12.40;92.70
7562;DHT22;3822;48.784;9.174;2022-09-17T19:53:37;12.40;92.60
7562;DHT22;3822;48.784;9.174;2022-09-17T19:56:06;12.40;92.60
7562;DHT22;3822;48.784;9.174;2022-09-17T19:58:32;12.40;92.40
7562;DHT22;3822;48.784;9.174;2022-09-17T20:00:59;12.40;92.30
7562;DHT22;3822;48.784;9.174;2022-09-17T20:03:26;12.40;92.20
7562;DHT22;3822;48.784;9.174;2022-09-17T20:08:30;12.40;92.10
7562;DHT22;3822;48.784;9.174;2022-09-17T20:11:07;12.30;91.90
7562;DHT22;3822;48.784;9.174;2022-09-17T20:13:35;12.40;91.90
7562;DHT22;3822;48.784;9.174;2022-09-17T20:16:08;12.50;92.00
7562;DHT22;3822;48.784;9.174;2022-09-17T20:18:35;12.40;91.80
7562;DHT22;3822;48.784;9.174;2022-09-17T20:21:10;13.30;92.20